createdAt,value
2023-02-03T00:00:10.372Z,4.00
2023-02-03T00:02:41.058Z,4.00
2023-02-03T00:05:10.469Z,4.00
2023-02-03T00:07:39.833Z,4.00
2023-02-03T00:10:10.522Z,4.00
2023-02-03T00:12:38.590Z,3.90
2023-02-03T00:15:07.756Z,4.00
2023-02-03T00:17:35.753Z,4.00
2023-02-03T00:20:04.068Z,4.00
2023-02-03T00:22:32.337Z,4.00
2023-02-03T00:25:00.690Z,4.00
2023-02-03T00:27:30.170Z,4.20
2023-02-03T00:29:59.743Z,4.10
2023-02-03T00:32:28.221Z,4.20
2023-02-03T00:34:56.670Z,4.30
2023-02-03T00:37:25.025Z,4.30
2023-02-03T00:39:55.508Z,4.30
2023-02-03T00:42:23.700Z,4.10
2023-02-03T00:44:53.117Z,4.10
2023-02-03T00:47:21.330Z,4.20
2023-02-03T00:49:50.574Z,4.30
2023-02-03T00:52:18.752Z,4.30
2023-02-03T00:54:47.007Z,4.20
2023-02-03T00:57:15.343Z,4.20
2023-02-03T00:59:44.036Z,4.20
2023-02-03T01:02:13.690Z,4.20
2023-02-03T01:04:41.968Z,4.20
2023-02-03T01:07:10.238Z,4.30
2023-02-03T01:09:39.034Z,4.30
2023-02-03T01:12:07.779Z,4.40
2023-02-03T01:14:36.006Z,4.30
2023-02-03T01:17:05.972Z,4.20
2023-02-03T01:19:35.507Z,4.30
2023-02-03T01:22:03.752Z,4.20
2023-02-03T01:24:32.235Z,4.20
2023-02-03T01:27:00.985Z,4.40
2023-02-03T01:29:29.534Z,4.30
2023-02-03T01:31:57.998Z,4.40
2023-02-03T01:34:26.325Z,4.20
2023-02-03T01:36:56.001Z,4.40
2023-02-03T01:39:26.285Z,4.40
2023-02-03T01:41:56.564Z,4.30
2023-02-03T01:44:40.794Z,4.20
2023-02-03T01:47:23.169Z,4.30
2023-02-03T01:49:57.907Z,4.30
2023-02-03T01:52:29.096Z,4.30
2023-02-03T01:54:59.414Z,4.30
2023-02-03T01:57:31.914Z,4.30
2023-02-03T02:00:01.575Z,4.40
2023-02-03T02:02:30.468Z,4.50
2023-02-03T02:05:06.143Z,4.30
2023-02-03T02:07:38.526Z,4.40
2023-02-03T02:10:07.847Z,4.40
2023-02-03T02:12:35.980Z,4.40
2023-02-03T02:15:04.595Z,4.40
2023-02-03T02:17:57.614Z,4.30
2023-02-03T02:20:50.045Z,4.50
2023-02-03T02:23:47.922Z,4.40
2023-02-03T02:26:40.589Z,4.40
2023-02-03T02:29:33.479Z,4.40
2023-02-03T02:32:08.133Z,4.50
2023-02-03T02:34:47.567Z,4.40
2023-02-03T02:37:25.903Z,4.50
2023-02-03T02:40:01.891Z,4.60
2023-02-03T02:42:36.194Z,4.50
2023-02-03T02:45:11.579Z,4.50
2023-02-03T02:47:41.344Z,4.50
2023-02-03T02:50:15.602Z,4.50
2023-02-03T02:52:47.076Z,4.60
2023-02-03T02:55:24.638Z,4.50
2023-02-03T02:57:57.482Z,4.50
2023-02-03T03:00:31.695Z,4.60
2023-02-03T03:03:13.199Z,4.50
2023-02-03T03:05:44.930Z,4.50
2023-02-03T03:08:17.670Z,4.60
2023-02-03T03:10:47.229Z,4.60
2023-02-03T03:13:23.260Z,4.50
2023-02-03T03:15:55.249Z,4.50
2023-02-03T03:18:29.597Z,4.60
2023-02-03T03:21:05.997Z,4.40
2023-02-03T03:23:39.466Z,4.50
2023-02-03T03:26:14.199Z,4.60
2023-02-03T03:28:48.008Z,4.60
2023-02-03T03:31:18.301Z,4.60
2023-02-03T03:33:49.204Z,4.50
2023-02-03T03:36:25.167Z,4.50
2023-02-03T03:38:59.835Z,4.60
2023-02-03T03:41:37.502Z,4.60
2023-02-03T03:44:08.998Z,4.60
2023-02-03T03:46:41.349Z,4.40
2023-02-03T03:49:12.823Z,4.60
2023-02-03T03:51:45.609Z,4.50
2023-02-03T03:54:17.986Z,4.60
2023-02-03T03:56:51.555Z,4.60
2023-02-03T03:59:23.123Z,4.70
2023-02-03T04:01:53.344Z,4.50
2023-02-03T04:04:26.135Z,4.60
2023-02-03T04:06:55.723Z,4.60
2023-02-03T04:09:23.884Z,4.60
2023-02-03T04:12:05.773Z,4.60
2023-02-03T04:14:38.118Z,4.60
2023-02-03T04:17:06.658Z,4.60
2023-02-03T04:19:36.222Z,4.60
2023-02-03T04:22:04.434Z,4.50
2023-02-03T04:24:32.628Z,4.60
2023-02-03T04:27:00.768Z,4.60
2023-02-03T04:29:28.961Z,4.60
2023-02-03T04:31:57.296Z,4.50
2023-02-03T04:34:25.513Z,4.50
2023-02-03T04:36:54.999Z,4.60
2023-02-03T04:39:23.602Z,4.60
2023-02-03T04:41:51.623Z,4.50
2023-02-03T04:44:19.949Z,4.50
2023-02-03T04:46:48.039Z,4.50
2023-02-03T04:49:17.780Z,4.50
2023-02-03T04:51:46.045Z,4.40
2023-02-03T04:54:15.460Z,4.50
2023-02-03T04:56:43.739Z,4.40
2023-02-03T04:59:11.932Z,4.30
2023-02-03T05:01:40.116Z,4.40
2023-02-03T05:04:08.397Z,4.50
2023-02-03T05:06:36.536Z,4.40
2023-02-03T05:09:05.251Z,4.40
2023-02-03T05:11:36.091Z,4.40
2023-02-03T05:14:04.672Z,4.30
2023-02-03T05:16:33.015Z,4.30
2023-02-03T05:19:01.404Z,4.40
2023-02-03T05:21:29.817Z,4.40
2023-02-03T05:23:57.962Z,4.40
2023-02-03T05:26:26.141Z,4.40
2023-02-03T05:28:57.675Z,4.40
2023-02-03T05:31:25.959Z,4.40
2023-02-03T05:33:54.029Z,4.40
2023-02-03T05:36:22.343Z,4.40
2023-02-03T05:38:50.741Z,4.30
2023-02-03T05:41:36.281Z,4.40
2023-02-03T05:44:06.116Z,4.40
2023-02-03T05:46:34.397Z,4.40
2023-02-03T05:49:02.587Z,4.40
2023-02-03T05:51:31.064Z,4.40
2023-02-03T05:53:59.262Z,4.40
2023-02-03T05:56:27.530Z,4.40
2023-02-03T05:58:55.583Z,4.30
2023-02-03T06:01:25.406Z,4.30
2023-02-03T06:03:53.652Z,4.50
2023-02-03T06:06:21.953Z,4.40
2023-02-03T06:08:51.206Z,4.40
2023-02-03T06:11:19.529Z,4.50
2023-02-03T06:13:49.115Z,4.40
2023-02-03T06:16:17.450Z,4.40
2023-02-03T06:18:47.322Z,4.40
2023-02-03T06:21:15.440Z,4.40
2023-02-03T06:23:43.583Z,4.40
2023-02-03T06:26:12.211Z,4.50
2023-02-03T06:28:40.262Z,4.40
2023-02-03T06:31:08.769Z,4.30
2023-02-03T06:33:37.171Z,4.30
2023-02-03T06:36:07.615Z,4.40
2023-02-03T06:38:35.721Z,4.30
2023-02-03T06:41:03.939Z,4.40
2023-02-03T06:43:32.237Z,4.50
2023-02-03T06:46:00.586Z,4.50
2023-02-03T06:48:28.794Z,4.40
2023-02-03T06:50:57.019Z,4.40
2023-02-03T06:53:26.780Z,4.50
2023-02-03T06:55:54.894Z,4.50
2023-02-03T06:58:23.022Z,4.50
2023-02-03T07:00:52.041Z,4.40
2023-02-03T07:03:20.231Z,4.50
2023-02-03T07:05:48.509Z,4.50
2023-02-03T07:08:16.734Z,4.40
2023-02-03T07:10:46.259Z,4.50
2023-02-03T07:13:14.789Z,4.50
2023-02-03T07:15:43.081Z,4.50
2023-02-03T07:18:13.100Z,4.50
2023-02-03T07:20:43.414Z,4.40
2023-02-03T07:23:11.525Z,4.50
2023-02-03T07:25:40.325Z,4.50
2023-02-03T07:28:10.004Z,4.50
2023-02-03T07:30:38.437Z,4.50
2023-02-03T07:33:08.146Z,4.50
2023-02-03T07:35:36.586Z,4.60
2023-02-03T07:38:04.742Z,4.50
2023-02-03T07:40:33.270Z,4.50
2023-02-03T07:43:01.514Z,4.50
2023-02-03T07:45:31.102Z,4.60
2023-02-03T07:47:59.259Z,4.70
2023-02-03T07:50:27.733Z,4.70
2023-02-03T07:52:56.689Z,4.70
2023-02-03T07:55:24.828Z,4.70
2023-02-03T07:57:55.594Z,4.70
2023-02-03T08:00:24.467Z,4.80
2023-02-03T08:02:54.122Z,4.80
2023-02-03T08:05:22.506Z,4.90
2023-02-03T08:07:50.563Z,4.90
2023-02-03T08:10:19.482Z,4.90
2023-02-03T08:12:48.094Z,4.90
2023-02-03T08:15:17.435Z,5.00
2023-02-03T08:17:46.391Z,4.90
2023-02-03T08:20:16.576Z,5.10
2023-02-03T08:22:44.714Z,5.10
2023-02-03T08:25:13.347Z,5.00
2023-02-03T08:27:42.338Z,5.10
2023-02-03T08:30:14.069Z,5.10
2023-02-03T08:32:42.292Z,5.20
2023-02-03T08:35:10.687Z,5.20
2023-02-03T08:37:40.158Z,5.20
2023-02-03T08:40:09.500Z,5.20
2023-02-03T08:42:37.699Z,5.20
2023-02-03T08:45:07.376Z,5.20
2023-02-03T08:47:36.914Z,5.30
2023-02-03T08:50:05.840Z,5.30
2023-02-03T08:52:34.250Z,5.30
2023-02-03T08:55:03.802Z,5.30
2023-02-03T08:57:34.201Z,5.40
2023-02-03T09:00:03.339Z,5.30
2023-02-03T09:02:32.212Z,5.40
2023-02-03T09:05:00.564Z,5.40
2023-02-03T09:07:29.148Z,5.40
2023-02-03T09:09:57.239Z,5.40
2023-02-03T09:12:26.699Z,5.40
2023-02-03T09:14:55.289Z,5.40
2023-02-03T09:17:23.313Z,5.50
2023-02-03T09:19:51.531Z,5.40
2023-02-03T09:22:19.765Z,5.50
2023-02-03T09:24:50.613Z,5.50
2023-02-03T09:27:18.703Z,5.40
2023-02-03T09:29:48.338Z,5.50
2023-02-03T09:32:16.636Z,5.50
2023-02-03T09:34:44.891Z,5.70
2023-02-03T09:37:13.099Z,5.60
2023-02-03T09:39:41.364Z,5.60
2023-02-03T09:42:39.073Z,5.60
2023-02-03T09:45:19.247Z,5.70
2023-02-03T09:47:53.997Z,5.70
2023-02-03T09:50:24.948Z,5.70
2023-02-03T09:52:54.073Z,5.80
2023-02-03T09:55:31.403Z,5.80
2023-02-03T09:58:06.385Z,5.80
2023-02-03T10:00:41.049Z,5.80
2023-02-03T10:03:15.759Z,5.80
2023-02-03T10:06:13.995Z,5.80
2023-02-03T10:09:08.145Z,5.90
2023-02-03T10:11:55.543Z,5.90
2023-02-03T10:14:37.061Z,5.90
2023-02-03T10:17:16.385Z,5.90
2023-02-03T10:19:48.532Z,5.90
2023-02-03T10:22:20.695Z,6.00
2023-02-03T10:24:55.971Z,6.00
2023-02-03T10:27:26.114Z,6.00
2023-02-03T10:30:00.412Z,6.00
2023-02-03T10:32:30.459Z,6.00
2023-02-03T10:34:58.798Z,6.10
2023-02-03T10:37:31.377Z,6.10
2023-02-03T10:40:02.549Z,6.00
2023-02-03T10:42:52.361Z,6.10
2023-02-03T10:45:21.780Z,6.00
2023-02-03T10:47:55.122Z,6.00
2023-02-03T10:50:24.735Z,6.00
2023-02-03T10:52:52.899Z,6.10
2023-02-03T10:55:32.072Z,6.10
2023-02-03T10:58:10.145Z,6.10
2023-02-03T11:00:38.463Z,6.20
2023-02-03T11:03:17.839Z,6.20
2023-02-03T11:05:45.994Z,6.20
2023-02-03T11:08:16.763Z,6.20
2023-02-03T11:10:45.506Z,6.20
2023-02-03T11:13:18.370Z,6.20
2023-02-03T11:15:54.072Z,6.20
2023-02-03T11:18:43.150Z,6.30
2023-02-03T11:21:17.235Z,6.30
2023-02-03T11:23:53.648Z,6.40
2023-02-03T11:26:25.858Z,6.30
2023-02-03T11:28:57.951Z,6.30
2023-02-03T11:31:28.116Z,6.40
2023-02-03T11:34:00.918Z,6.50
2023-02-03T11:36:34.239Z,6.50
2023-02-03T11:39:35.828Z,6.50
2023-02-03T11:42:04.235Z,6.50
2023-02-03T11:44:33.584Z,6.50
2023-02-03T11:47:05.396Z,6.50
2023-02-03T11:50:02.155Z,6.40
2023-02-03T11:52:46.154Z,6.40
2023-02-03T11:55:32.867Z,6.50
2023-02-03T11:58:23.421Z,6.50
2023-02-03T12:00:58.181Z,6.60
2023-02-03T12:03:50.416Z,6.60
2023-02-03T12:06:31.691Z,6.60
2023-02-03T12:09:10.245Z,6.60
2023-02-03T12:11:56.061Z,6.60
2023-02-03T12:14:40.512Z,6.60
2023-02-03T12:17:31.634Z,6.60
2023-02-03T12:20:26.629Z,6.60
2023-02-03T12:23:09.137Z,6.60
2023-02-03T12:25:47.828Z,6.50
2023-02-03T12:28:33.711Z,6.60
2023-02-03T12:31:10.154Z,6.60
2023-02-03T12:33:44.356Z,6.70
2023-02-03T12:36:16.675Z,6.70
2023-02-03T12:38:52.669Z,6.60
2023-02-03T12:41:27.889Z,6.70
2023-02-03T12:44:01.436Z,6.70
2023-02-03T12:46:33.467Z,6.70
2023-02-03T12:49:06.471Z,6.70
2023-02-03T12:51:40.367Z,6.60
2023-02-03T12:54:21.471Z,6.70
2023-02-03T12:56:55.211Z,6.70
2023-02-03T12:59:26.517Z,6.80
2023-02-03T13:02:00.022Z,6.80
2023-02-03T13:04:35.051Z,6.70
2023-02-03T13:07:09.608Z,6.70
2023-02-03T13:09:44.588Z,6.60
2023-02-03T13:12:21.208Z,6.70
2023-02-03T13:14:54.101Z,6.70
2023-02-03T13:17:26.809Z,6.70
2023-02-03T13:19:59.404Z,6.70
2023-02-03T13:22:28.107Z,6.70
2023-02-03T13:25:03.151Z,6.70
2023-02-03T13:27:44.120Z,6.60
2023-02-03T13:30:41.107Z,6.60
2023-02-03T13:33:36.307Z,6.60
2023-02-03T13:36:18.676Z,6.60
2023-02-03T13:39:16.762Z,6.50
2023-02-03T13:41:50.089Z,6.50
2023-02-03T13:44:21.946Z,6.50
2023-02-03T13:46:52.794Z,6.40
2023-02-03T13:49:26.737Z,6.40
2023-02-03T13:51:55.522Z,6.30
2023-02-03T13:54:28.828Z,6.40
2023-02-03T13:57:02.215Z,6.30
2023-02-03T13:59:40.783Z,6.30
2023-02-03T14:02:45.685Z,6.30
2023-02-03T14:05:42.988Z,6.30
2023-02-03T14:08:48.541Z,6.30
2023-02-03T14:11:41.498Z,6.30
2023-02-03T14:14:46.119Z,6.30
2023-02-03T14:18:03.152Z,6.30
2023-02-03T14:20:53.121Z,6.30
2023-02-03T14:23:26.784Z,6.30
2023-02-03T14:25:58.255Z,6.20
2023-02-03T14:28:32.376Z,6.30
2023-02-03T14:31:16.900Z,6.30
2023-02-03T14:34:13.410Z,6.30
2023-02-03T14:36:48.892Z,6.30
2023-02-03T14:39:56.237Z,6.30
2023-02-03T14:42:49.400Z,6.20
2023-02-03T14:45:39.676Z,6.30
2023-02-03T14:48:29.074Z,6.30
2023-02-03T14:51:11.418Z,6.20
2023-02-03T14:53:58.212Z,6.30
2023-02-03T14:56:59.497Z,6.20
2023-02-03T14:59:33.041Z,6.20
2023-02-03T15:02:19.184Z,6.10
2023-02-03T15:04:50.736Z,6.30
2023-02-03T15:07:38.907Z,6.20
2023-02-03T15:10:16.276Z,6.30
2023-02-03T15:12:49.501Z,6.40
2023-02-03T15:15:23.039Z,6.30
2023-02-03T15:17:52.175Z,6.20
2023-02-03T15:20:38.655Z,6.20
2023-02-03T15:23:20.125Z,6.20
2023-02-03T15:25:54.860Z,6.30
2023-02-03T15:28:24.137Z,6.30
2023-02-03T15:30:57.872Z,6.30
2023-02-03T15:33:26.390Z,6.30
2023-02-03T15:36:00.659Z,6.20
2023-02-03T15:38:34.926Z,6.30
2023-02-03T15:41:04.548Z,6.20
2023-02-03T15:43:38.313Z,6.10
2023-02-03T15:46:13.119Z,6.10
2023-02-03T15:48:46.424Z,6.20
2023-02-03T15:51:18.675Z,6.20
2023-02-03T15:53:54.432Z,6.10
2023-02-03T15:56:30.447Z,6.10
2023-02-03T15:58:59.693Z,6.10
2023-02-03T16:01:28.602Z,6.00
2023-02-03T16:03:58.285Z,6.00
2023-02-03T16:06:30.699Z,6.00
2023-02-03T16:08:59.671Z,6.00
2023-02-03T16:11:32.017Z,6.00
2023-02-03T16:14:02.227Z,6.00
2023-02-03T16:16:36.995Z,5.90
2023-02-03T16:19:07.475Z,6.00
2023-02-03T16:21:44.268Z,6.00
2023-02-03T16:24:40.997Z,6.00
2023-02-03T16:27:22.162Z,6.00
2023-02-03T16:30:07.704Z,6.00
2023-02-03T16:32:53.398Z,5.90
2023-02-03T16:35:39.222Z,6.00
2023-02-03T16:38:32.031Z,5.90
2023-02-03T16:41:17.483Z,6.00
2023-02-03T16:44:03.618Z,5.90
2023-02-03T16:46:49.420Z,5.80
2023-02-03T16:49:34.909Z,5.80
2023-02-03T16:52:06.392Z,5.80
2023-02-03T16:54:35.889Z,5.80
2023-02-03T16:57:03.942Z,5.70
2023-02-03T16:59:32.212Z,5.70
2023-02-03T17:02:00.405Z,5.60
2023-02-03T17:04:28.449Z,5.60
2023-02-03T17:06:56.816Z,5.40
2023-02-03T17:09:25.158Z,5.40
2023-02-03T17:11:54.837Z,5.40
2023-02-03T17:14:23.009Z,5.40
2023-02-03T17:16:51.218Z,5.30
2023-02-03T17:19:19.270Z,5.40
2023-02-03T17:21:47.761Z,5.30
2023-02-03T17:24:16.390Z,5.30
2023-02-03T17:26:44.729Z,5.30
2023-02-03T17:29:14.365Z,5.30
2023-02-03T17:31:42.468Z,5.30
2023-02-03T17:34:10.937Z,5.30
2023-02-03T17:36:38.997Z,5.30
2023-02-03T17:55:31.964Z,5.30
2023-02-03T17:58:00.311Z,5.40
2023-02-03T18:00:33.064Z,5.30
2023-02-03T18:03:01.297Z,5.40
2023-02-03T18:05:29.893Z,5.40
2023-02-03T18:08:00.934Z,5.30
2023-02-03T18:10:34.390Z,5.30
2023-02-03T18:13:02.845Z,5.10
2023-02-03T18:15:33.063Z,5.20
2023-02-03T18:18:01.943Z,5.20
2023-02-03T18:20:30.500Z,5.10
2023-02-03T18:22:58.776Z,5.10
2023-02-03T18:25:26.857Z,5.00
2023-02-03T18:27:55.220Z,5.10
2023-02-03T18:30:23.614Z,5.10
2023-02-03T18:32:53.717Z,5.20
2023-02-03T18:35:21.924Z,5.00
2023-02-03T18:37:51.646Z,5.00
2023-02-03T18:40:20.306Z,5.00
2023-02-03T18:42:48.597Z,5.00
2023-02-03T18:45:16.923Z,5.00
2023-02-03T18:47:44.969Z,4.90
2023-02-03T18:50:14.873Z,4.90
2023-02-03T18:52:43.011Z,5.00
2023-02-03T18:55:11.186Z,4.90
2023-02-03T18:57:39.679Z,4.90
2023-02-03T19:00:09.139Z,5.00
2023-02-03T19:02:37.297Z,5.00
2023-02-03T19:05:05.729Z,5.00
2023-02-03T19:07:35.152Z,5.00
2023-02-03T19:10:03.285Z,5.10
2023-02-03T19:12:31.603Z,5.00
2023-02-03T19:14:59.835Z,5.10
2023-02-03T19:17:28.061Z,5.10
2023-02-03T19:19:56.176Z,5.10
2023-02-03T19:22:25.887Z,5.10
2023-02-03T19:24:55.890Z,5.10
2023-02-03T19:27:24.326Z,4.90
2023-02-03T19:29:52.651Z,5.20
2023-02-03T19:32:20.952Z,5.20
2023-02-03T19:34:49.097Z,5.10
2023-02-03T19:37:17.178Z,5.20
2023-02-03T19:39:47.900Z,5.00
2023-02-03T19:42:17.450Z,5.00
2023-02-03T19:44:45.668Z,5.10
2023-02-03T19:47:14.040Z,5.20
2023-02-03T19:49:42.169Z,5.30
2023-02-03T19:52:10.327Z,5.20
2023-02-03T19:54:38.670Z,5.10
2023-02-03T19:57:06.908Z,5.20
2023-02-03T19:59:36.560Z,5.10
2023-02-03T20:02:13.658Z,5.20
2023-02-03T20:04:43.908Z,5.10
2023-02-03T20:07:12.563Z,5.10
2023-02-03T20:09:40.696Z,5.20
2023-02-03T20:12:08.962Z,5.30
2023-02-03T20:14:38.736Z,5.20
2023-02-03T20:17:07.614Z,5.30
2023-02-03T20:19:36.084Z,5.30
2023-02-03T20:22:04.241Z,5.30
2023-02-03T20:24:32.580Z,5.30
2023-02-03T20:27:00.907Z,5.20
2023-02-03T20:29:29.182Z,5.30
2023-02-03T20:31:58.656Z,5.20
2023-02-03T20:34:28.514Z,5.20
2023-02-03T20:36:58.572Z,5.30
2023-02-03T20:39:27.616Z,5.30
2023-02-03T20:41:56.153Z,5.30
2023-02-03T20:44:24.267Z,5.20
2023-02-03T20:46:53.405Z,5.30
2023-02-03T20:49:23.184Z,5.30
2023-02-03T20:51:51.608Z,5.30
2023-02-03T20:54:22.255Z,5.20
2023-02-03T20:56:50.568Z,5.30
2023-02-03T20:59:20.143Z,5.20
2023-02-03T21:01:49.221Z,5.30
2023-02-03T21:04:36.955Z,5.20
2023-02-03T21:07:14.824Z,5.20
2023-02-03T21:09:43.155Z,5.20
2023-02-03T21:12:13.022Z,5.30
2023-02-03T21:14:43.895Z,5.20
2023-02-03T21:17:18.211Z,5.20
2023-02-03T21:19:47.983Z,5.30
2023-02-03T21:22:23.010Z,5.20
2023-02-03T21:24:53.838Z,5.10
2023-02-03T21:27:26.918Z,4.90
2023-02-03T21:29:57.404Z,5.00
2023-02-03T21:32:27.720Z,5.00
2023-02-03T21:34:56.096Z,5.00
2023-02-03T21:37:42.588Z,5.00
2023-02-03T21:40:22.615Z,4.90
2023-02-03T21:42:51.832Z,5.00
2023-02-03T21:45:30.965Z,5.00
2023-02-03T21:47:59.826Z,5.00
2023-02-03T21:50:35.703Z,5.00
2023-02-03T21:53:25.645Z,5.00
2023-02-03T21:55:54.464Z,5.00
2023-02-03T21:58:24.505Z,5.10
2023-02-03T22:00:54.011Z,5.10
2023-02-03T22:03:30.815Z,5.00
2023-02-03T22:06:17.641Z,4.90
2023-02-03T22:08:48.659Z,4.90
2023-02-03T22:11:18.592Z,5.00
2023-02-03T22:13:47.366Z,5.00
2023-02-03T22:16:17.189Z,5.10
2023-02-03T22:18:46.350Z,5.00
2023-02-03T22:21:15.357Z,5.00
2023-02-03T22:23:43.981Z,4.90
2023-02-03T22:26:14.537Z,4.90
2023-02-03T22:28:43.184Z,4.90
2023-02-03T22:31:13.158Z,4.90
2023-02-03T22:33:43.374Z,4.70
2023-02-03T22:36:12.551Z,4.80
2023-02-03T22:38:42.217Z,4.70
2023-02-03T22:41:11.916Z,4.70
2023-02-03T22:43:41.789Z,4.70
2023-02-03T22:46:10.184Z,4.70
2023-02-03T22:48:38.318Z,4.60
2023-02-03T22:51:06.606Z,4.70
2023-02-03T22:53:34.913Z,4.70
2023-02-03T22:56:03.328Z,4.60
2023-02-03T22:58:32.228Z,4.60
2023-02-03T23:01:01.672Z,4.60
2023-02-03T23:03:32.683Z,4.60
2023-02-03T23:06:01.168Z,4.60
2023-02-03T23:08:29.246Z,4.50
2023-02-03T23:10:57.382Z,4.50
2023-02-03T23:13:25.933Z,4.50
2023-02-03T23:15:54.015Z,4.50
2023-02-03T23:18:23.827Z,4.50
2023-02-03T23:20:51.993Z,4.50
2023-02-03T23:23:20.212Z,4.30
2023-02-03T23:25:48.331Z,4.40
2023-02-03T23:28:16.537Z,4.50
2023-02-03T23:30:45.251Z,4.50
2023-02-03T23:33:13.553Z,4.40
2023-02-03T23:35:49.403Z,4.50
2023-02-03T23:38:18.851Z,4.40
2023-02-03T23:40:47.926Z,4.30
2023-02-03T23:43:16.890Z,4.20
2023-02-03T23:45:44.990Z,4.30
2023-02-03T23:48:13.623Z,4.30
2023-02-03T23:50:43.076Z,4.20
2023-02-03T23:53:11.521Z,4.30
2023-02-03T23:55:39.530Z,4.30
2023-02-03T23:58:07.691Z,4.40
